createdAt,value
2017-12-28T00:01:03.381Z,5.80
2017-12-28T00:03:30.873Z,5.80
2017-12-28T00:05:59.194Z,5.80
2017-12-28T00:08:26.694Z,5.70
2017-12-28T00:10:54.658Z,5.80
2017-12-28T00:13:22.356Z,5.80
2017-12-28T00:15:50.892Z,5.80
2017-12-28T00:18:19.000Z,5.80
2017-12-28T00:20:47.314Z,5.80
2017-12-28T00:23:14.775Z,5.80
2017-12-28T00:25:42.763Z,5.80
2017-12-28T00:28:10.217Z,5.90
2017-12-28T00:30:38.090Z,5.80
2017-12-28T00:33:05.620Z,5.80
2017-12-28T00:35:33.158Z,5.80
2017-12-28T00:38:00.588Z,5.80
2017-12-28T00:40:28.746Z,5.80
2017-12-28T00:42:56.223Z,5.80
2017-12-28T00:45:23.684Z,5.80
2017-12-28T00:47:52.414Z,5.90
2017-12-28T00:50:20.579Z,5.90
2017-12-28T00:52:48.031Z,5.90
2017-12-28T00:55:15.491Z,5.90
2017-12-28T00:57:42.946Z,6.00
2017-12-28T01:00:10.384Z,5.90
2017-12-28T01:02:37.884Z,6.00
2017-12-28T01:05:05.936Z,6.00
2017-12-28T01:07:33.363Z,6.00
2017-12-28T01:10:00.947Z,6.00
2017-12-28T01:12:28.405Z,6.00
2017-12-28T01:14:56.280Z,6.00
2017-12-28T01:17:23.713Z,5.90
2017-12-28T01:19:51.507Z,5.90
2017-12-28T01:22:19.078Z,5.90
2017-12-28T01:24:47.195Z,5.90
2017-12-28T01:27:14.682Z,5.90
2017-12-28T01:29:42.264Z,5.90
2017-12-28T01:32:09.705Z,5.80
2017-12-28T01:34:37.136Z,5.80
2017-12-28T01:37:05.562Z,5.80
2017-12-28T01:39:32.983Z,5.70
2017-12-28T01:42:00.481Z,5.60
2017-12-28T01:44:27.941Z,5.60
2017-12-28T01:46:56.995Z,5.50
2017-12-28T01:49:24.995Z,5.50
2017-12-28T01:51:53.073Z,5.50
2017-12-28T01:54:20.540Z,5.50
2017-12-28T01:56:49.099Z,5.50
2017-12-28T01:59:16.582Z,5.50
2017-12-28T02:01:44.020Z,5.40
2017-12-28T02:04:11.493Z,5.40
2017-12-28T02:06:39.130Z,5.30
2017-12-28T02:09:06.674Z,5.30
2017-12-28T02:11:34.300Z,5.30
2017-12-28T02:14:05.627Z,5.20
2017-12-28T02:16:34.157Z,5.20
2017-12-28T02:19:01.601Z,5.20
2017-12-28T02:21:29.256Z,5.30
2017-12-28T02:23:56.731Z,5.30
2017-12-28T02:26:24.821Z,5.40
2017-12-28T02:28:52.277Z,5.40
2017-12-28T02:31:20.284Z,5.40
2017-12-28T02:33:48.725Z,5.40
2017-12-28T02:36:16.253Z,5.40
2017-12-28T02:38:43.710Z,5.40
2017-12-28T02:41:11.244Z,5.30
2017-12-28T02:43:38.785Z,5.30
2017-12-28T02:46:06.993Z,5.30
2017-12-28T02:48:34.836Z,5.30
2017-12-28T02:51:03.594Z,5.20
2017-12-28T02:53:31.033Z,5.20
2017-12-28T02:55:58.496Z,5.20
2017-12-28T02:58:25.965Z,5.20
2017-12-28T03:00:53.413Z,5.20
2017-12-28T03:03:20.939Z,5.20
2017-12-28T03:05:48.911Z,5.20
2017-12-28T03:08:16.366Z,5.20
2017-12-28T03:10:43.824Z,5.20
2017-12-28T03:13:11.308Z,5.20
2017-12-28T03:15:38.992Z,5.20
2017-12-28T03:18:06.495Z,5.20
2017-12-28T03:20:33.952Z,5.10
2017-12-28T03:23:01.645Z,5.10
2017-12-28T03:25:29.318Z,5.10
2017-12-28T03:27:56.977Z,5.10
2017-12-28T03:30:24.741Z,5.10
2017-12-28T03:32:53.122Z,5.10
2017-12-28T03:35:20.597Z,5.00
2017-12-28T03:37:49.183Z,5.00
2017-12-28T03:40:17.383Z,5.00
2017-12-28T03:42:46.223Z,5.00
2017-12-28T03:45:13.714Z,5.00
2017-12-28T03:47:43.105Z,4.90
2017-12-28T03:50:11.418Z,4.90
2017-12-28T03:52:39.428Z,4.90
2017-12-28T03:55:07.297Z,4.90
2017-12-28T03:57:34.728Z,4.80
2017-12-28T04:00:02.195Z,4.80
2017-12-28T04:02:29.630Z,4.80
2017-12-28T04:04:57.183Z,4.80
2017-12-28T04:07:24.634Z,4.70
2017-12-28T04:09:52.194Z,4.60
2017-12-28T04:12:19.651Z,4.60
2017-12-28T04:14:47.553Z,4.60
2017-12-28T04:17:14.989Z,4.60
2017-12-28T04:19:43.121Z,4.70
2017-12-28T04:22:11.327Z,4.70
2017-12-28T04:24:39.621Z,4.60
2017-12-28T04:27:07.061Z,4.70
2017-12-28T04:29:34.759Z,4.70
2017-12-28T04:32:02.271Z,4.70
2017-12-28T04:34:29.855Z,4.70
2017-12-28T04:36:57.300Z,4.70
2017-12-28T04:39:24.760Z,4.70
2017-12-28T04:41:52.804Z,4.70
2017-12-28T04:44:20.272Z,4.70
2017-12-28T04:46:47.711Z,4.70
2017-12-28T04:49:15.760Z,4.60
2017-12-28T04:51:44.779Z,4.60
2017-12-28T04:54:12.246Z,4.60
2017-12-28T04:56:39.698Z,4.60
2017-12-28T04:59:07.159Z,4.60
2017-12-28T05:01:34.632Z,4.60
2017-12-28T05:04:02.068Z,4.60
2017-12-28T05:06:29.632Z,4.60
2017-12-28T05:08:57.073Z,4.60
2017-12-28T05:11:24.776Z,4.60
2017-12-28T05:13:52.220Z,4.60
2017-12-28T05:16:20.107Z,4.50
2017-12-28T05:18:47.760Z,4.60
2017-12-28T05:21:15.194Z,4.50
2017-12-28T05:23:42.768Z,4.60
2017-12-28T05:26:10.551Z,4.60
2017-12-28T05:28:38.001Z,4.60
2017-12-28T05:31:05.857Z,4.60
2017-12-28T05:33:33.310Z,4.60
2017-12-28T05:36:00.748Z,4.60
2017-12-28T05:38:28.220Z,4.60
2017-12-28T05:40:55.669Z,4.70
2017-12-28T05:43:23.102Z,4.70
2017-12-28T05:45:50.645Z,4.70
2017-12-28T05:48:19.177Z,4.70
2017-12-28T05:50:46.992Z,4.70
2017-12-28T05:53:15.688Z,4.70
2017-12-28T05:55:43.160Z,4.60
2017-12-28T05:58:10.648Z,4.60
2017-12-28T06:00:39.158Z,4.60
2017-12-28T06:03:07.383Z,4.60
2017-12-28T06:05:35.386Z,4.60
2017-12-28T06:08:02.878Z,4.60
2017-12-28T06:10:31.109Z,4.60
2017-12-28T06:12:59.353Z,4.60
2017-12-28T06:15:27.059Z,4.60
2017-12-28T06:17:54.948Z,4.60
2017-12-28T06:20:23.152Z,4.60
2017-12-28T06:22:51.255Z,4.60
2017-12-28T06:25:19.133Z,4.60
2017-12-28T06:27:46.612Z,4.60
2017-12-28T06:30:15.071Z,4.50
2017-12-28T06:32:42.549Z,4.50
2017-12-28T06:35:10.761Z,4.50
2017-12-28T06:37:38.454Z,4.50
2017-12-28T06:40:05.926Z,4.50
2017-12-28T06:42:33.365Z,4.50
2017-12-28T06:45:00.845Z,4.40
2017-12-28T06:47:28.800Z,4.40
2017-12-28T06:49:56.292Z,4.40
2017-12-28T06:52:24.820Z,4.50
2017-12-28T06:54:52.586Z,4.50
2017-12-28T06:57:20.117Z,4.40
2017-12-28T06:59:47.540Z,4.40
2017-12-28T07:02:15.773Z,4.40
2017-12-28T07:04:43.211Z,4.40
2017-12-28T07:07:11.072Z,4.50
2017-12-28T07:09:38.488Z,4.50
2017-12-28T07:12:06.728Z,4.40
2017-12-28T07:14:34.588Z,4.40
2017-12-28T07:17:02.578Z,4.40
2017-12-28T07:19:30.777Z,4.50
2017-12-28T07:21:58.392Z,4.50
2017-12-28T07:24:26.542Z,4.40
2017-12-28T07:26:53.997Z,4.50
2017-12-28T07:29:21.963Z,4.40
2017-12-28T07:31:49.422Z,4.40
2017-12-28T07:34:16.877Z,4.40
2017-12-28T07:36:44.321Z,4.40
2017-12-28T07:39:11.791Z,4.30
2017-12-28T07:41:39.316Z,4.30
2017-12-28T07:44:07.525Z,4.20
2017-12-28T07:46:35.071Z,4.20
2017-12-28T07:49:03.896Z,4.30
2017-12-28T07:51:32.584Z,4.20
2017-12-28T07:54:00.546Z,4.20
2017-12-28T07:56:28.190Z,4.20
2017-12-28T07:58:55.620Z,4.20
2017-12-28T08:01:23.204Z,4.20
2017-12-28T08:03:50.655Z,4.10
2017-12-28T08:06:18.120Z,4.10
2017-12-28T08:08:45.569Z,4.10
2017-12-28T08:11:13.229Z,4.10
2017-12-28T08:13:40.683Z,4.00
2017-12-28T08:16:08.614Z,4.10
2017-12-28T08:18:36.827Z,4.00
2017-12-28T08:21:04.619Z,4.00
2017-12-28T08:23:32.077Z,4.10
2017-12-28T08:25:59.778Z,4.10
2017-12-28T08:28:28.021Z,4.10
2017-12-28T08:30:56.944Z,4.00
2017-12-28T08:33:25.222Z,4.00
2017-12-28T08:35:52.681Z,4.00
2017-12-28T08:38:20.163Z,4.00
2017-12-28T08:40:47.620Z,4.00
2017-12-28T08:43:15.794Z,4.00
2017-12-28T08:45:43.286Z,4.00
2017-12-28T08:48:11.136Z,4.00
2017-12-28T08:50:39.153Z,3.90
2017-12-28T08:53:06.988Z,3.90
2017-12-28T08:55:34.460Z,3.90
2017-12-28T08:58:02.676Z,3.80
2017-12-28T09:00:30.168Z,3.80
2017-12-28T09:02:57.945Z,3.80
2017-12-28T09:05:26.288Z,3.90
2017-12-28T09:07:53.733Z,3.90
2017-12-28T09:10:21.220Z,3.90
2017-12-28T09:12:48.668Z,3.90
2017-12-28T09:15:16.551Z,3.90
2017-12-28T09:17:43.992Z,3.90
2017-12-28T09:20:11.477Z,4.00
2017-12-28T09:22:39.194Z,4.00
2017-12-28T09:25:07.160Z,4.00
2017-12-28T09:27:34.616Z,4.00
2017-12-28T09:30:02.723Z,4.00
2017-12-28T09:32:30.493Z,4.00
2017-12-28T09:34:58.217Z,4.00
2017-12-28T09:37:25.656Z,4.00
2017-12-28T09:39:53.130Z,4.10
2017-12-28T09:42:20.690Z,4.10
2017-12-28T09:44:48.143Z,4.10
2017-12-28T09:47:16.457Z,4.20
2017-12-28T09:49:43.901Z,4.20
2017-12-28T09:52:12.179Z,4.20
2017-12-28T09:54:39.630Z,4.30
2017-12-28T09:57:07.269Z,4.40
2017-12-28T09:59:34.880Z,4.40
2017-12-28T10:02:02.834Z,4.40
2017-12-28T10:04:30.273Z,4.40
2017-12-28T10:06:57.756Z,4.50
2017-12-28T10:09:25.222Z,4.50
2017-12-28T10:11:52.868Z,4.50
2017-12-28T10:14:20.932Z,4.50
2017-12-28T10:16:48.392Z,4.60
2017-12-28T10:19:16.573Z,4.60
2017-12-28T10:21:44.016Z,4.70
2017-12-28T10:24:11.456Z,4.80
2017-12-28T10:26:39.339Z,5.00
2017-12-28T10:29:07.409Z,5.10
2017-12-28T10:31:35.178Z,5.30
2017-12-28T10:34:02.686Z,5.40
2017-12-28T10:36:30.183Z,5.50
2017-12-28T10:38:57.621Z,5.60
2017-12-28T10:41:25.088Z,5.70
2017-12-28T10:43:53.922Z,5.70
2017-12-28T10:46:21.368Z,5.70
2017-12-28T10:48:49.278Z,5.70
2017-12-28T10:51:16.726Z,5.70
2017-12-28T10:53:44.497Z,5.80
2017-12-28T10:56:11.946Z,5.90
2017-12-28T10:58:39.418Z,5.90
2017-12-28T11:01:06.864Z,5.90
2017-12-28T11:03:34.324Z,6.00
2017-12-28T11:06:01.783Z,6.10
2017-12-28T11:08:29.785Z,6.30
2017-12-28T11:10:57.308Z,6.40
2017-12-28T11:13:24.777Z,6.50
2017-12-28T11:15:52.835Z,6.60
2017-12-28T11:18:20.270Z,6.60
2017-12-28T11:20:48.483Z,6.60
2017-12-28T11:23:16.070Z,6.60
2017-12-28T11:25:43.980Z,6.60
2017-12-28T11:28:11.424Z,6.60
2017-12-28T11:30:39.308Z,6.60
2017-12-28T11:33:06.771Z,6.60
2017-12-28T11:35:34.331Z,6.70
2017-12-28T11:38:01.786Z,6.80
2017-12-28T11:40:29.300Z,6.90
2017-12-28T11:42:56.723Z,6.90
2017-12-28T11:45:24.588Z,6.90
2017-12-28T11:47:54.405Z,6.90
2017-12-28T11:50:21.884Z,6.90
2017-12-28T11:52:55.748Z,6.90
2017-12-28T11:55:23.960Z,6.90
2017-12-28T11:57:55.371Z,6.90
2017-12-28T12:00:27.837Z,6.90
2017-12-28T12:03:01.927Z,6.70
2017-12-28T12:05:45.185Z,6.70
2017-12-28T12:08:18.618Z,6.70
2017-12-28T12:10:51.079Z,6.60
2017-12-28T12:13:18.561Z,6.50
2017-12-28T12:15:46.471Z,6.50
2017-12-28T12:18:13.959Z,6.50
2017-12-28T12:20:41.652Z,6.30
2017-12-28T12:23:10.130Z,6.20
2017-12-28T12:25:38.044Z,6.20
2017-12-28T12:28:05.513Z,6.20
2017-12-28T12:30:33.421Z,6.10
2017-12-28T12:33:01.287Z,6.10
2017-12-28T12:35:29.780Z,6.30
2017-12-28T12:37:57.994Z,6.30
2017-12-28T12:40:25.550Z,6.30
2017-12-28T12:42:53.168Z,6.30
2017-12-28T12:45:21.140Z,6.30
2017-12-28T12:47:49.960Z,6.20
2017-12-28T12:50:17.425Z,6.20
2017-12-28T12:52:44.979Z,6.10
2017-12-28T12:55:12.654Z,6.00
2017-12-28T12:57:40.227Z,5.90
2017-12-28T13:00:07.692Z,5.90
2017-12-28T13:02:35.212Z,5.80
2017-12-28T13:05:03.430Z,5.80
2017-12-28T13:07:30.938Z,5.70
2017-12-28T13:09:58.548Z,5.70
2017-12-28T13:12:26.109Z,5.70
2017-12-28T13:14:53.854Z,5.80
2017-12-28T13:17:21.300Z,5.90
2017-12-28T13:19:48.738Z,6.00
2017-12-28T13:22:16.241Z,6.20
2017-12-28T13:24:43.990Z,6.40
2017-12-28T13:27:11.466Z,6.60
2017-12-28T13:29:39.450Z,6.60
2017-12-28T13:32:07.683Z,6.50
2017-12-28T13:34:35.378Z,6.50
2017-12-28T13:37:02.983Z,6.40
2017-12-28T13:39:30.421Z,6.20
2017-12-28T13:41:58.044Z,6.20
2017-12-28T13:44:26.396Z,6.00
2017-12-28T13:46:53.855Z,6.00
2017-12-28T13:49:21.733Z,5.90
2017-12-28T13:51:49.248Z,5.90
2017-12-28T13:54:17.143Z,5.80
2017-12-28T13:56:44.913Z,5.80
2017-12-28T13:59:12.439Z,5.80
2017-12-28T14:01:39.999Z,5.80
2017-12-28T14:04:07.454Z,5.70
2017-12-28T14:06:35.016Z,5.70
2017-12-28T14:09:02.720Z,5.60
2017-12-28T14:11:30.172Z,5.60
2017-12-28T14:13:58.453Z,5.60
2017-12-28T14:16:25.900Z,5.60
2017-12-28T14:18:53.578Z,5.60
2017-12-28T14:21:21.771Z,5.60
2017-12-28T14:23:50.002Z,5.50
2017-12-28T14:26:17.954Z,5.40
2017-12-28T14:28:45.501Z,5.50
2017-12-28T14:31:13.400Z,5.50
2017-12-28T14:33:40.856Z,5.40
2017-12-28T14:36:08.566Z,5.40
2017-12-28T14:38:36.803Z,5.40
2017-12-28T14:41:04.326Z,5.40
2017-12-28T14:43:31.752Z,5.40
2017-12-28T14:46:00.087Z,5.30
2017-12-28T14:48:27.738Z,5.30
2017-12-28T14:50:55.445Z,5.30
2017-12-28T14:53:24.344Z,5.30
2017-12-28T14:55:51.802Z,5.30
2017-12-28T14:58:19.289Z,5.30
2017-12-28T15:00:46.774Z,5.30
2017-12-28T15:03:14.218Z,5.30
2017-12-28T15:05:42.522Z,5.30
2017-12-28T15:08:09.944Z,5.30
2017-12-28T15:10:37.732Z,5.30
2017-12-28T15:13:05.257Z,5.30
2017-12-28T15:15:32.964Z,5.30
2017-12-28T15:18:00.450Z,5.30
2017-12-28T15:20:27.966Z,5.30
2017-12-28T15:22:55.412Z,5.30
2017-12-28T15:25:23.502Z,5.30
2017-12-28T15:27:50.964Z,5.30
2017-12-28T15:30:18.879Z,5.30
2017-12-28T15:32:46.334Z,5.30
2017-12-28T15:35:13.805Z,5.30
2017-12-28T15:37:41.450Z,5.30
2017-12-28T15:40:08.887Z,5.20
2017-12-28T15:42:37.106Z,5.20
2017-12-28T15:45:05.148Z,5.10
2017-12-28T15:47:33.136Z,5.10
2017-12-28T15:50:00.678Z,5.10
2017-12-28T15:52:28.140Z,5.00
2017-12-28T15:54:55.860Z,5.00
2017-12-28T15:57:24.684Z,5.10
2017-12-28T15:59:52.253Z,5.00
2017-12-28T16:02:19.767Z,5.10
2017-12-28T16:04:48.087Z,5.10
2017-12-28T16:07:15.990Z,5.10
2017-12-28T16:09:43.433Z,5.10
2017-12-28T16:12:10.898Z,5.10
2017-12-28T16:14:39.891Z,5.10
2017-12-28T16:17:07.339Z,5.10
2017-12-28T16:19:34.870Z,5.10
2017-12-28T16:22:02.303Z,5.00
2017-12-28T16:24:32.169Z,5.00
2017-12-28T16:26:59.611Z,5.00
2017-12-28T16:29:27.605Z,5.00
2017-12-28T16:31:55.040Z,4.90
2017-12-28T16:34:22.531Z,4.90
2017-12-28T16:36:49.952Z,5.00
2017-12-28T16:39:18.122Z,4.90
2017-12-28T16:41:45.565Z,4.90
2017-12-28T16:44:13.549Z,4.90
2017-12-28T16:46:41.595Z,5.00
2017-12-28T16:49:09.338Z,5.00
2017-12-28T16:51:37.044Z,5.00
2017-12-28T16:54:04.560Z,5.00
2017-12-28T16:56:32.510Z,5.00
2017-12-28T16:59:00.833Z,5.00
2017-12-28T17:01:29.479Z,5.00
2017-12-28T17:03:57.894Z,5.00
2017-12-28T17:06:25.345Z,5.00
2017-12-28T17:08:52.899Z,4.90
2017-12-28T17:11:20.573Z,4.90
2017-12-28T17:13:48.056Z,4.90
2017-12-28T17:16:16.710Z,4.90
2017-12-28T17:18:44.160Z,4.90
2017-12-28T17:21:11.820Z,4.80
2017-12-28T17:23:39.283Z,4.80
2017-12-28T17:26:07.247Z,4.80
2017-12-28T17:28:35.060Z,4.80
2017-12-28T17:31:02.998Z,4.80
2017-12-28T17:33:30.544Z,4.80
2017-12-28T17:35:58.758Z,4.80
2017-12-28T17:38:26.268Z,4.80
2017-12-28T17:40:53.951Z,4.80
2017-12-28T17:43:21.425Z,4.80
2017-12-28T17:45:48.882Z,4.90
2017-12-28T17:48:17.918Z,4.90
2017-12-28T17:50:46.629Z,4.80
2017-12-28T17:53:14.660Z,4.80
2017-12-28T17:55:43.228Z,4.90
2017-12-28T17:58:10.741Z,4.80
2017-12-28T18:00:38.194Z,4.90
2017-12-28T18:03:05.851Z,4.80
2017-12-28T18:05:33.363Z,4.80
2017-12-28T18:08:01.989Z,4.80
2017-12-28T18:10:30.024Z,4.80
2017-12-28T18:12:58.385Z,4.90
2017-12-28T18:15:26.560Z,4.80
2017-12-28T18:17:54.070Z,4.90
2017-12-28T18:20:21.621Z,4.90
2017-12-28T18:22:49.660Z,4.90
2017-12-28T18:25:18.332Z,4.80
2017-12-28T18:27:46.062Z,4.90
2017-12-28T18:30:13.936Z,4.80
2017-12-28T18:32:41.459Z,4.80
2017-12-28T18:35:09.235Z,4.80
2017-12-28T18:37:37.003Z,4.80
2017-12-28T18:40:04.444Z,4.70
2017-12-28T18:42:31.990Z,4.70
2017-12-28T18:45:00.288Z,4.70
2017-12-28T18:47:28.364Z,4.60
2017-12-28T18:49:55.856Z,4.70
2017-12-28T18:52:23.377Z,4.70
2017-12-28T18:54:51.919Z,4.70
2017-12-28T18:57:20.438Z,4.60
2017-12-28T18:59:47.933Z,4.60
2017-12-28T19:02:15.539Z,4.70
2017-12-28T19:04:43.174Z,4.70
2017-12-28T19:07:11.385Z,4.70
2017-12-28T19:09:38.953Z,4.70
2017-12-28T19:12:06.918Z,4.60
2017-12-28T19:14:34.963Z,4.50
2017-12-28T19:17:03.191Z,4.60
2017-12-28T19:19:30.717Z,4.50
2017-12-28T19:21:59.271Z,4.60
2017-12-28T19:24:28.805Z,4.60
2017-12-28T19:26:58.106Z,4.60
2017-12-28T19:29:27.012Z,4.60
2017-12-28T19:31:56.617Z,4.70
2017-12-28T19:34:25.902Z,4.70
2017-12-28T19:36:55.407Z,4.70
2017-12-28T19:39:23.501Z,4.70
2017-12-28T19:41:51.355Z,4.60
2017-12-28T19:44:19.763Z,4.60
2017-12-28T19:46:48.098Z,4.60
2017-12-28T19:49:16.374Z,4.60
2017-12-28T19:51:44.240Z,4.60
2017-12-28T19:54:12.212Z,4.50
2017-12-28T19:56:40.489Z,4.50
2017-12-28T19:59:08.803Z,4.50
2017-12-28T20:01:36.381Z,4.40
2017-12-28T20:04:04.287Z,4.40
2017-12-28T20:06:32.154Z,4.40
2017-12-28T20:08:59.735Z,4.30
2017-12-28T20:11:27.644Z,4.30
2017-12-28T20:13:55.438Z,4.30
2017-12-28T20:16:24.538Z,4.30
2017-12-28T20:18:52.302Z,4.30
2017-12-28T20:21:20.123Z,4.30
2017-12-28T20:23:48.042Z,4.40
2017-12-28T20:26:16.320Z,4.40
2017-12-28T20:28:44.281Z,4.30
2017-12-28T20:31:12.323Z,4.30
2017-12-28T20:33:41.238Z,4.30
2017-12-28T20:36:10.049Z,4.40
2017-12-28T20:38:42.897Z,4.40
2017-12-28T20:41:12.917Z,4.40
2017-12-28T20:43:41.558Z,4.40
2017-12-28T20:46:10.431Z,4.40
2017-12-28T20:48:39.578Z,4.40
2017-12-28T20:51:09.207Z,4.40
2017-12-28T20:53:38.046Z,4.30
2017-12-28T20:56:07.387Z,4.30
2017-12-28T20:58:36.205Z,4.30
2017-12-28T21:01:05.191Z,4.30
2017-12-28T21:03:32.864Z,4.40
2017-12-28T21:06:00.377Z,4.40
2017-12-28T21:08:28.186Z,4.40
2017-12-28T21:10:56.965Z,4.40
2017-12-28T21:13:25.742Z,4.40
2017-12-28T21:15:53.958Z,4.40
2017-12-28T21:18:21.849Z,4.40
2017-12-28T21:20:50.916Z,4.40
2017-12-28T21:23:20.041Z,4.40
2017-12-28T21:25:49.261Z,4.40
2017-12-28T21:28:17.049Z,4.40
2017-12-28T21:30:45.564Z,4.40
2017-12-28T21:33:14.212Z,4.40
2017-12-28T21:35:44.126Z,4.40
2017-12-28T21:38:13.215Z,4.40
2017-12-28T21:40:41.723Z,4.30
2017-12-28T21:43:10.157Z,4.30
2017-12-28T21:45:38.638Z,4.30
2017-12-28T21:48:07.374Z,4.30
2017-12-28T21:50:34.988Z,4.30
2017-12-28T21:53:02.549Z,4.30
2017-12-28T21:55:31.079Z,4.20
2017-12-28T21:58:01.046Z,4.30
2017-12-28T22:00:28.744Z,4.20
2017-12-28T22:02:57.185Z,4.30
2017-12-28T22:05:26.690Z,4.20
2017-12-28T22:07:54.569Z,4.20
2017-12-28T22:10:22.256Z,4.20
2017-12-28T22:12:51.476Z,4.20
2017-12-28T22:15:20.196Z,4.30
2017-12-28T22:17:47.874Z,4.20
2017-12-28T22:20:15.328Z,4.30
2017-12-28T22:22:42.852Z,4.30
2017-12-28T22:25:10.826Z,4.30
2017-12-28T22:27:38.403Z,4.30
2017-12-28T22:30:06.158Z,4.30
2017-12-28T22:32:33.828Z,4.40
2017-12-28T22:35:01.295Z,4.40
2017-12-28T22:37:28.990Z,4.40
2017-12-28T22:39:56.447Z,4.40
2017-12-28T22:42:24.497Z,4.40
2017-12-28T22:44:51.965Z,4.40
2017-12-28T22:47:20.045Z,4.40
2017-12-28T22:49:47.535Z,4.40
2017-12-28T22:52:15.430Z,4.30
2017-12-28T22:54:42.907Z,4.30
2017-12-28T22:57:10.860Z,4.40
2017-12-28T22:59:38.343Z,4.30
2017-12-28T23:02:05.994Z,4.30
2017-12-28T23:04:33.424Z,4.30
2017-12-28T23:07:00.924Z,4.30
2017-12-28T23:09:28.405Z,4.20
2017-12-28T23:11:57.211Z,4.20
2017-12-28T23:14:25.297Z,4.20
2017-12-28T23:16:52.855Z,4.20
2017-12-28T23:19:20.293Z,4.20
2017-12-28T23:21:48.015Z,4.20
2017-12-28T23:24:16.008Z,4.20
2017-12-28T23:26:44.528Z,4.20
2017-12-28T23:29:12.505Z,4.20
2017-12-28T23:31:39.992Z,4.30
2017-12-28T23:34:08.221Z,4.20
2017-12-28T23:36:35.782Z,4.20
2017-12-28T23:39:03.312Z,4.20
2017-12-28T23:41:30.796Z,4.20
2017-12-28T23:43:58.253Z,4.20
2017-12-28T23:46:25.960Z,4.20
2017-12-28T23:48:54.021Z,4.10
2017-12-28T23:51:22.107Z,4.20
2017-12-28T23:53:49.545Z,4.20
2017-12-28T23:56:17.785Z,4.20
2017-12-28T23:58:45.759Z,4.10
